createdAt,value
2022-09-09T00:03:01.816Z,10.70
2022-09-09T00:08:18.720Z,11.00
2022-09-09T00:13:29.168Z,10.80
2022-09-09T00:18:53.464Z,11.20
2022-09-09T00:24:00.138Z,11.70
2022-09-09T00:29:23.165Z,10.20
2022-09-09T00:34:30.566Z,13.40
2022-09-09T00:39:42.743Z,11.60
2022-09-09T00:45:02.333Z,10.10
2022-09-09T00:50:25.659Z,12.10
2022-09-09T00:55:41.554Z,9.80
2022-09-09T01:00:52.113Z,8.90
2022-09-09T01:06:17.063Z,11.50
2022-09-09T01:11:26.809Z,7.60
2022-09-09T01:16:35.522Z,10.60
2022-09-09T01:21:49.573Z,10.60
2022-09-09T01:26:59.236Z,10.50
2022-09-09T01:32:44.128Z,11.70
2022-09-09T01:37:51.461Z,9.10
2022-09-09T01:42:58.481Z,12.40
2022-09-09T01:48:04.907Z,12.70
2022-09-09T01:53:26.571Z,11.90
2022-09-09T01:58:40.442Z,11.00
2022-09-09T02:03:52.923Z,11.20
2022-09-09T02:09:02.109Z,12.30
2022-09-09T02:14:13.396Z,11.90
2022-09-09T02:19:27.439Z,12.70
2022-09-09T02:25:00.575Z,13.60
2022-09-09T02:30:10.629Z,12.30
2022-09-09T02:35:27.534Z,13.20
2022-09-09T02:40:33.589Z,12.80
2022-09-09T02:45:50.742Z,12.20
2022-09-09T02:51:06.093Z,14.30
2022-09-09T02:56:17.873Z,11.00
2022-09-09T03:01:25.265Z,10.20
2022-09-09T03:06:31.765Z,12.20
2022-09-09T03:11:45.134Z,12.70
2022-09-09T03:16:51.272Z,9.70
2022-09-09T03:21:57.167Z,9.70
2022-09-09T03:27:03.270Z,12.80
2022-09-09T03:32:11.675Z,11.60
2022-09-09T03:37:18.737Z,11.40
2022-09-09T03:42:25.155Z,9.80
2022-09-09T03:47:32.624Z,8.60
2022-09-09T03:57:54.198Z,9.10
2022-09-09T04:03:00.062Z,9.00
2022-09-09T04:08:05.809Z,11.50
2022-09-09T04:13:13.463Z,11.10
2022-09-09T04:18:20.371Z,7.80
2022-09-09T04:23:30.409Z,7.10
2022-09-09T04:28:38.014Z,8.10
2022-09-09T04:33:48.695Z,9.30
2022-09-09T04:38:55.295Z,6.30
2022-09-09T04:44:01.789Z,10.90
2022-09-09T04:49:09.223Z,6.00
2022-09-09T04:54:17.898Z,6.10
2022-09-09T04:59:24.256Z,7.60
2022-09-09T05:04:34.116Z,6.70
2022-09-09T05:09:40.087Z,8.00
2022-09-09T05:14:46.523Z,6.80
2022-09-09T05:19:52.527Z,6.60
2022-09-09T05:24:59.496Z,6.70
2022-09-09T05:30:06.617Z,7.10
2022-09-09T05:35:14.638Z,5.50
2022-09-09T05:40:22.592Z,5.20
2022-09-09T05:45:28.893Z,5.00
2022-09-09T05:50:34.857Z,4.30
2022-09-09T05:55:40.720Z,6.00
2022-09-09T06:00:47.306Z,9.10
2022-09-09T06:06:01.790Z,5.20
2022-09-09T06:11:09.353Z,5.70
2022-09-09T06:16:19.316Z,6.30
2022-09-09T06:21:27.182Z,4.10
2022-09-09T06:26:35.438Z,5.00
2022-09-09T06:31:42.481Z,5.20
2022-09-09T06:37:00.958Z,5.60
2022-09-09T06:42:17.497Z,4.80
2022-09-09T06:47:31.163Z,4.10
2022-09-09T06:52:37.884Z,4.20
2022-09-09T06:57:44.366Z,6.10
2022-09-09T07:02:56.534Z,8.30
2022-09-09T07:08:03.465Z,7.00
2022-09-09T07:13:10.928Z,6.70
2022-09-09T07:18:16.888Z,6.70
2022-09-09T07:23:23.423Z,5.90
2022-09-09T07:28:31.617Z,7.00
2022-09-09T07:33:38.060Z,6.20
2022-09-09T07:38:48.898Z,6.70
2022-09-09T07:43:55.818Z,6.40
2022-09-09T07:49:03.231Z,8.70
2022-09-09T07:54:13.910Z,7.10
2022-09-09T07:59:21.672Z,7.70
2022-09-09T08:04:29.159Z,8.00
2022-09-09T08:10:09.158Z,8.10
2022-09-09T08:15:16.623Z,8.80
2022-09-09T08:20:24.234Z,7.90
2022-09-09T08:25:30.971Z,7.40
2022-09-09T08:30:36.892Z,10.80
2022-09-09T08:35:53.801Z,9.80
2022-09-09T08:41:14.273Z,9.20
2022-09-09T08:46:26.736Z,10.30
2022-09-09T08:51:34.566Z,10.20
2022-09-09T08:56:40.851Z,11.00
2022-09-09T09:02:03.067Z,12.80
2022-09-09T09:07:32.690Z,9.70
2022-09-09T09:12:44.584Z,15.10
2022-09-09T09:17:52.297Z,15.00
2022-09-09T09:23:04.581Z,11.10
2022-09-09T09:28:20.327Z,12.00
2022-09-09T09:33:32.917Z,11.20
2022-09-09T09:44:23.313Z,21.60
2022-09-09T09:49:29.397Z,13.00
2022-09-09T09:54:38.966Z,13.00
2022-09-09T09:59:46.734Z,16.30
2022-09-09T10:05:07.537Z,14.20
2022-09-09T10:10:21.093Z,16.60
2022-09-09T10:15:37.964Z,16.60
2022-09-09T10:20:55.298Z,17.50
2022-09-09T10:26:18.402Z,14.90
2022-09-09T10:31:35.046Z,15.80
2022-09-09T10:36:45.352Z,14.60
2022-09-09T10:42:01.023Z,13.20
2022-09-09T10:47:37.012Z,17.80
2022-09-09T10:52:52.045Z,19.60
2022-09-09T10:58:01.810Z,17.00
2022-09-09T11:03:14.419Z,16.10
2022-09-09T11:13:36.500Z,21.10
2022-09-09T11:18:44.107Z,20.10
2022-09-09T11:23:55.701Z,17.90
2022-09-09T11:29:34.416Z,20.20
2022-09-09T11:34:57.631Z,18.60
2022-09-09T11:40:20.312Z,17.50
2022-09-09T11:45:32.017Z,25.10
2022-09-09T11:50:41.162Z,29.50
2022-09-09T11:55:47.354Z,21.50
2022-09-09T12:08:07.438Z,24.50
2022-09-09T12:13:21.240Z,22.40
2022-09-09T12:18:51.665Z,20.70
2022-09-09T12:24:07.893Z,23.30
2022-09-09T12:29:45.522Z,24.20
2022-09-09T12:41:41.949Z,35.10
2022-09-09T12:46:49.426Z,25.30
2022-09-09T12:51:55.369Z,24.20
2022-09-09T12:57:02.386Z,22.60
2022-09-09T13:02:21.586Z,25.10
2022-09-09T13:07:27.499Z,27.80
2022-09-09T13:12:33.614Z,19.40
2022-09-09T13:17:39.772Z,24.50
2022-09-09T13:22:45.650Z,22.80
2022-09-09T13:28:03.828Z,24.40
2022-09-09T13:33:24.124Z,23.30
2022-09-09T13:38:32.566Z,23.30
2022-09-09T13:43:44.641Z,24.80
2022-09-09T13:48:58.538Z,22.80
2022-09-09T13:54:07.115Z,28.30
2022-09-09T13:59:15.385Z,24.30
2022-09-09T14:04:24.488Z,24.70
2022-09-09T14:09:30.602Z,25.30
2022-09-09T14:14:37.184Z,25.90
2022-09-09T14:19:43.905Z,23.50
2022-09-09T14:24:50.209Z,26.30
2022-09-09T14:29:56.311Z,25.70
2022-09-09T14:35:02.549Z,24.20
2022-09-09T14:40:09.768Z,25.40
2022-09-09T14:45:15.978Z,23.60
2022-09-09T14:50:22.873Z,25.00
2022-09-09T14:55:30.251Z,24.20
2022-09-09T15:00:37.269Z,24.80
2022-09-09T15:05:44.000Z,25.30
2022-09-09T15:10:51.177Z,23.80
2022-09-09T15:15:58.107Z,26.40
2022-09-09T15:21:05.928Z,25.20
2022-09-09T15:26:15.032Z,27.50
2022-09-09T15:31:23.121Z,24.80
2022-09-09T15:36:31.186Z,22.50
2022-09-09T15:41:37.224Z,23.30
2022-09-09T15:46:45.557Z,21.70
2022-09-09T15:51:54.445Z,25.00
2022-09-09T15:57:01.865Z,24.80
2022-09-09T16:02:08.083Z,23.00
2022-09-09T16:07:14.573Z,25.00
2022-09-09T16:12:20.605Z,23.10
2022-09-09T16:17:26.651Z,27.10
2022-09-09T16:22:32.716Z,22.30
2022-09-09T16:27:38.624Z,25.80
2022-09-09T16:32:44.475Z,26.00
2022-09-09T16:37:50.218Z,26.90
2022-09-09T16:42:56.471Z,25.40
2022-09-09T16:48:02.660Z,29.80
2022-09-09T16:53:09.892Z,24.70
2022-09-09T16:58:15.632Z,25.60
2022-09-09T17:03:21.935Z,25.40
2022-09-09T17:08:28.022Z,28.30
2022-09-09T17:13:34.181Z,26.00
2022-09-09T17:18:41.103Z,29.60
2022-09-09T17:23:47.890Z,24.80
2022-09-09T17:28:59.117Z,25.80
2022-09-09T17:34:06.043Z,26.30
2022-09-09T17:39:12.004Z,24.60
2022-09-09T17:44:20.240Z,22.50
2022-09-09T17:49:26.011Z,23.50
2022-09-09T17:54:33.899Z,24.00
2022-09-09T17:59:39.966Z,19.90
2022-09-09T18:04:47.325Z,21.00
2022-09-09T18:09:53.419Z,20.50
2022-09-09T18:15:03.795Z,18.00
2022-09-09T18:20:11.162Z,22.50
2022-09-09T18:25:17.411Z,22.70
2022-09-09T18:30:23.635Z,17.60
2022-09-09T18:35:30.143Z,18.70
2022-09-09T18:40:35.968Z,18.20
2022-09-09T18:45:42.257Z,18.40
2022-09-09T18:50:48.409Z,21.00
2022-09-09T18:56:02.157Z,17.50
2022-09-09T19:01:12.633Z,21.30
2022-09-09T19:06:20.305Z,18.50
2022-09-09T19:11:27.981Z,19.70
2022-09-09T19:16:35.525Z,18.90
2022-09-09T19:21:43.532Z,18.20
2022-09-09T19:26:52.176Z,19.00
2022-09-09T19:37:26.629Z,16.30
2022-09-09T19:42:32.958Z,17.20
2022-09-09T19:47:39.194Z,16.90
2022-09-09T19:52:44.995Z,12.80
2022-09-09T19:57:51.125Z,15.50
2022-09-09T20:03:18.060Z,18.00
2022-09-09T20:08:27.396Z,11.80
2022-09-09T20:13:35.317Z,14.10
2022-09-09T20:18:43.120Z,11.80
2022-09-09T20:23:50.114Z,11.50
2022-09-09T20:28:56.577Z,11.30
2022-09-09T20:34:04.124Z,12.80
2022-09-09T20:39:12.341Z,14.40
2022-09-09T20:44:19.950Z,11.50
2022-09-09T20:49:26.138Z,11.70
2022-09-09T20:54:32.197Z,11.80
2022-09-09T20:59:38.437Z,11.00
2022-09-09T21:04:47.745Z,11.10
2022-09-09T21:09:53.862Z,12.10
2022-09-09T21:15:00.760Z,12.10
2022-09-09T21:20:08.798Z,11.50
2022-09-09T21:25:15.433Z,10.50
2022-09-09T21:30:28.680Z,9.30
2022-09-09T21:35:41.294Z,9.80
2022-09-09T21:40:51.543Z,10.90
2022-09-09T21:45:58.301Z,9.40
2022-09-09T21:51:07.919Z,8.90
2022-09-09T21:56:17.273Z,10.00
2022-09-09T22:01:24.906Z,8.10
2022-09-09T22:06:31.825Z,8.70
2022-09-09T22:11:38.254Z,8.20
2022-09-09T22:16:44.421Z,8.10
2022-09-09T22:21:50.891Z,8.30
2022-09-09T22:26:57.114Z,7.70
2022-09-09T22:32:03.449Z,8.10
2022-09-09T22:37:10.055Z,9.70
2022-09-09T22:42:16.059Z,9.40
2022-09-09T22:47:22.197Z,10.10
2022-09-09T22:52:31.006Z,10.00
2022-09-09T22:57:37.365Z,12.80
2022-09-09T23:02:43.561Z,12.30
2022-09-09T23:07:50.217Z,12.50
2022-09-09T23:12:56.670Z,10.80
2022-09-09T23:18:03.047Z,9.40
2022-09-09T23:23:11.622Z,12.10
2022-09-09T23:28:17.725Z,9.20
2022-09-09T23:33:24.335Z,10.70
2022-09-09T23:38:30.413Z,11.10
2022-09-09T23:43:39.574Z,9.50
2022-09-09T23:48:45.831Z,7.70
2022-09-09T23:53:53.954Z,7.60
2022-09-09T23:59:00.429Z,10.00
